TJBQ/BQN METAR and TAF weather

Enter ICAO airport designator
Station Type Date Time Source
TJBQ METAR 2019/08/24 03:50 UTC NOAA

TJBQ 240350Z 12003KT 10SM CLR 25/24 A3006


Station Type Date Time Source
TJBQ Decoded METAR 2019/08/24 03:50 UTC NOAA

Station name not available
Aug 23, 2019 - 11:50 PM EDT / 2019.08.24 0350 UTC
Wind: from the ESE (120 degrees) at 3 MPH (3 KT):0
Visibility: 10 mile(s):0
Sky conditions: clear
Temperature: 77 F (25 C)
Dew Point: 75 F (24 C)
Relative Humidity: 94%
Pressure (altimeter): 30.06 in. Hg (1017 hPa)
ob: TJBQ 240350Z 12003KT 10SM CLR 25/24 A3006
cycle: 4

Station Type Date Time Source
TJBQ TAF 2019/08/24 06:24 UTC NOAA

TAF TJBQ 240520Z 2406/2506 11004KT P6SM FEW030
FM241400 08014KT P6SM SCT025
FM241700 08014KT P6SM VCTS SCT025CB BKN040
FM242300 09007KT P6SM FEW030
FM250300 10006KT P6SM FEW030
AMD NOT SKED TIL 241100

Example: see airport list